Time;durP1;ratioP1;P1;durP2;ratioP2;P2;SDS_P1;SDS_P2;PMS_P1;PMS_P2;Temp;Humidity;BMP_temperature;BMP_pressure;BME280_temperature;BME280_humidity;BME280_pressure;Samples;Min_cycle;Max_cycle;Signal;HPM_P1;HPM_P2
2023/04/08 00:00:20;;;;;;;19.20;14.27;;;;;;;;;;5057967;28;20208;-65
2023/04/08 00:02:47;;;;;;;20.30;15.77;;;;;;;;;;5059810;28;20630;-64
2023/04/08 00:05:18;;;;;;;20.67;16.30;;;;;;;;;;5058100;28;20213;-64
2023/04/08 00:07:45;;;;;;;25.33;19.10;;;;;;;;;;5059936;28;20316;-63
2023/04/08 00:10:13;;;;;;;32.40;23.97;;;;;;;;;;5072910;28;20240;-64
2023/04/08 00:12:40;;;;;;;21.73;15.77;;;;;;;;;;5073186;28;20208;-65
2023/04/08 00:15:08;;;;;;;19.73;16.40;;;;;;;;;;5067952;28;20209;-65
2023/04/08 00:17:35;;;;;;;28.27;20.87;;;;;;;;;;5069685;28;20209;-65
2023/04/08 00:20:03;;;;;;;22.77;17.87;;;;;;;;;;5066232;28;20758;-64
2023/04/08 00:22:31;;;;;;;21.43;17.03;;;;;;;;;;5069533;28;20596;-64
2023/04/08 00:24:58;;;;;;;20.60;16.10;;;;;;;;;;5061750;28;20202;-65
2023/04/08 00:27:25;;;;;;;20.03;16.23;;;;;;;;;;5066830;28;20237;-65
2023/04/08 00:29:53;;;;;;;23.60;15.93;;;;;;;;;;5071338;28;20227;-66
2023/04/08 00:32:21;;;;;;;25.60;17.60;;;;;;;;;;5072018;28;20202;-65
2023/04/08 00:34:48;;;;;;;23.67;18.50;;;;;;;;;;5085086;28;20674;-65
2023/04/08 00:37:16;;;;;;;21.60;17.40;;;;;;;;;;5087430;28;20201;-65
2023/04/08 00:39:43;;;;;;;20.30;15.87;;;;;;;;;;5073306;28;20224;-63
2023/04/08 00:42:11;;;;;;;21.47;16.30;;;;;;;;;;5067358;28;20215;-64
2023/04/08 00:44:38;;;;;;;20.00;16.50;;;;;;;;;;5063309;28;20454;-65
2023/04/08 00:47:06;;;;;;;22.43;17.90;;;;;;;;;;5062880;28;20711;-65
2023/04/08 00:49:33;;;;;;;23.50;18.13;;;;;;;;;;5060340;28;20240;-65
2023/04/08 00:52:00;;;;;;;22.70;17.87;;;;;;;;;;5062017;28;20233;-64
2023/04/08 00:54:28;;;;;;;22.57;17.40;;;;;;;;;;5065151;28;20201;-63
2023/04/08 00:56:55;;;;;;;24.03;18.47;;;;;;;;;;5078290;28;20240;-63
2023/04/08 00:59:23;;;;;;;24.00;17.87;;;;;;;;;;5061235;28;20228;-65
2023/04/08 01:01:59;;;;;;;25.27;19.03;;;;;;;;;;5062543;28;20233;-65
2023/04/08 01:04:53;;;;;;;25.97;20.53;;;;;;;;;;5077187;28;20201;-65
2023/04/08 01:07:30;;;;;;;27.87;21.13;;;;;;;;;;5044336;28;22104;-64
2023/04/08 01:10:01;;;;;;;28.53;21.47;;;;;;;;;;5062473;28;20239;-65
2023/04/08 01:12:30;;;;;;;28.93;21.00;;;;;;;;;;5060200;28;20287;-64
2023/04/08 01:15:02;;;;;;;27.27;19.93;;;;;;;;;;5059563;28;20262;-63
2023/04/08 01:17:30;;;;;;;28.67;20.67;;;;;;;;;;5063571;28;20254;-63
2023/04/08 01:19:59;;;;;;;26.40;19.90;;;;;;;;;;5058694;28;20224;-63
2023/04/08 01:22:45;;;;;;;25.97;19.63;;;;;;;;;;5062752;28;20244;-65
2023/04/08 01:25:23;;;;;;;29.20;19.57;;;;;;;;;;5060935;28;20239;-64
2023/04/08 01:27:55;;;;;;;24.67;17.87;;;;;;;;;;5063160;28;20228;-65
2023/04/08 01:30:23;;;;;;;26.07;19.73;;;;;;;;;;5063354;28;20589;-64
2023/04/08 01:32:52;;;;;;;28.90;20.10;;;;;;;;;;5072195;28;20608;-64
2023/04/08 01:35:20;;;;;;;31.17;19.97;;;;;;;;;;5061499;28;20699;-65
2023/04/08 01:37:49;;;;;;;29.73;20.13;;;;;;;;;;5083045;28;20224;-65
2023/04/08 01:40:17;;;;;;;31.30;22.10;;;;;;;;;;5058929;28;20678;-65
2023/04/08 01:42:45;;;;;;;30.73;22.27;;;;;;;;;;5064773;28;20237;-64
2023/04/08 01:45:14;;;;;;;30.90;22.57;;;;;;;;;;5069407;28;20558;-63
2023/04/08 01:47:43;;;;;;;31.60;21.93;;;;;;;;;;5073241;28;20225;-64
2023/04/08 01:50:12;;;;;;;31.83;21.90;;;;;;;;;;5061768;28;20204;-63
2023/04/08 01:52:40;;;;;;;34.87;22.17;;;;;;;;;;5062565;28;20197;-63
2023/04/08 01:55:08;;;;;;;35.33;23.43;;;;;;;;;;5064058;28;20610;-65
2023/04/08 01:57:37;;;;;;;32.63;21.53;;;;;;;;;;5069952;28;20331;-65
2023/04/08 02:00:05;;;;;;;32.00;22.00;;;;;;;;;;5062524;28;20393;-65
2023/04/08 02:02:35;;;;;;;33.83;22.57;;;;;;;;;;5061102;28;20229;-65
2023/04/08 02:05:03;;;;;;;33.77;22.23;;;;;;;;;;5061726;28;20538;-65
2023/04/08 02:07:30;;;;;;;36.27;23.77;;;;;;;;;;5061164;28;20457;-64
2023/04/08 02:09:58;;;;;;;34.60;22.63;;;;;;;;;;5077583;28;20219;-65
2023/04/08 02:12:27;;;;;;;31.97;21.33;;;;;;;;;;5067684;28;20205;-65
2023/04/08 02:14:56;;;;;;;34.07;22.53;;;;;;;;;;5065224;28;20291;-66
2023/04/08 02:17:27;;;;;;;34.93;22.83;;;;;;;;;;5063363;28;20574;-65
2023/04/08 02:20:05;;;;;;;34.83;23.03;;;;;;;;;;5065946;28;20748;-65
2023/04/08 02:22:47;;;;;;;35.50;21.80;;;;;;;;;;5065656;28;20247;-64
2023/04/08 02:25:15;;;;;;;37.70;24.20;;;;;;;;;;5080160;28;20224;-64
2023/04/08 02:27:44;;;;;;;37.73;24.53;;;;;;;;;;5069061;28;20231;-66
2023/04/08 02:30:11;;;;;;;33.50;22.93;;;;;;;;;;5068655;28;20286;-65
2023/04/08 02:32:39;;;;;;;35.67;23.30;;;;;;;;;;5069828;28;20250;-66
2023/04/08 02:35:07;;;;;;;34.83;22.90;;;;;;;;;;5067092;28;20216;-66
2023/04/08 02:37:35;;;;;;;34.43;22.73;;;;;;;;;;5063936;28;20229;-65
2023/04/08 02:40:03;;;;;;;36.33;22.60;;;;;;;;;;5070427;28;20712;-65
2023/04/08 02:42:30;;;;;;;32.87;22.07;;;;;;;;;;5057884;28;20399;-65
2023/04/08 02:44:57;;;;;;;30.17;21.40;;;;;;;;;;5059216;28;20392;-65
2023/04/08 02:47:25;;;;;;;33.53;22.30;;;;;;;;;;5056117;28;20221;-65
2023/04/08 02:49:54;;;;;;;29.60;21.23;;;;;;;;;;5063814;28;20256;-65
2023/04/08 02:52:21;;;;;;;28.07;20.27;;;;;;;;;;5058439;28;20205;-65
2023/04/08 02:54:48;;;;;;;25.27;18.57;;;;;;;;;;5056547;28;20201;-65
2023/04/08 02:57:16;;;;;;;28.13;19.57;;;;;;;;;;5059023;28;20205;-65
2023/04/08 02:59:43;;;;;;;31.47;21.70;;;;;;;;;;5059985;28;20228;-66
2023/04/08 03:02:10;;;;;;;27.90;20.00;;;;;;;;;;5059955;28;20229;-65
2023/04/08 03:04:38;;;;;;;27.90;20.90;;;;;;;;;;5059968;28;20215;-65
2023/04/08 03:07:05;;;;;;;30.83;21.17;;;;;;;;;;5058805;28;20250;-65
2023/04/08 03:09:34;;;;;;;30.00;21.53;;;;;;;;;;5060391;28;20240;-65
2023/04/08 03:12:02;;;;;;;30.70;20.93;;;;;;;;;;5076529;28;20614;-66
2023/04/08 03:14:29;;;;;;;41.57;27.03;;;;;;;;;;5060809;28;20257;-66
2023/04/08 03:16:57;;;;;;;26.93;20.23;;;;;;;;;;5078373;28;20692;-64
2023/04/08 03:19:24;;;;;;;31.93;21.43;;;;;;;;;;5063440;28;20233;-65
2023/04/08 03:21:51;;;;;;;34.70;24.17;;;;;;;;;;5061189;28;20630;-64
2023/04/08 03:24:19;;;;;;;35.07;24.07;;;;;;;;;;5059396;28;20240;-66
2023/04/08 03:26:46;;;;;;;38.30;26.47;;;;;;;;;;5061581;28;20714;-66
2023/04/08 03:29:13;;;;;;;36.00;24.67;;;;;;;;;;5060883;28;20312;-64
2023/04/08 03:31:41;;;;;;;33.33;23.57;;;;;;;;;;5061735;28;20220;-64
2023/04/08 03:34:08;;;;;;;34.40;23.53;;;;;;;;;;5059474;28;20211;-65
2023/04/08 03:36:35;;;;;;;28.83;20.87;;;;;;;;;;5075612;28;20468;-66
2023/04/08 03:39:03;;;;;;;32.50;22.57;;;;;;;;;;5066064;28;20586;-66
2023/04/08 03:41:39;;;;;;;35.10;24.10;;;;;;;;;;5058168;28;20292;-66
2023/04/08 03:44:06;;;;;;;32.70;22.30;;;;;;;;;;5061826;28;20228;-65
2023/04/08 03:46:34;;;;;;;34.17;22.97;;;;;;;;;;5067961;28;20228;-65
2023/04/08 03:49:01;;;;;;;31.07;22.33;;;;;;;;;;5066905;28;20321;-66
2023/04/08 03:51:28;;;;;;;30.13;21.97;;;;;;;;;;5067303;28;20292;-64
2023/04/08 03:53:56;;;;;;;28.40;20.93;;;;;;;;;;5063274;28;20262;-63
2023/04/08 03:56:24;;;;;;;22.67;16.60;;;;;;;;;;5066185;28;20240;-65
2023/04/08 03:58:51;;;;;;;22.83;17.63;;;;;;;;;;5064087;28;20229;-66
2023/04/08 04:01:19;;;;;;;19.70;14.77;;;;;;;;;;5066144;28;20258;-65
2023/04/08 04:03:46;;;;;;;19.13;15.07;;;;;;;;;;5066650;28;20683;-64
2023/04/08 04:06:14;;;;;;;18.37;15.07;;;;;;;;;;5064202;28;20252;-66
2023/04/08 04:08:41;;;;;;;17.17;15.20;;;;;;;;;;5064276;28;20672;-64
2023/04/08 04:11:08;;;;;;;16.50;13.17;;;;;;;;;;5069782;28;20247;-64
2023/04/08 04:13:36;;;;;;;16.43;12.93;;;;;;;;;;5069219;28;20205;-65
2023/04/08 04:16:03;;;;;;;17.27;13.57;;;;;;;;;;5071777;28;20613;-64
2023/04/08 04:18:30;;;;;;;17.17;13.57;;;;;;;;;;5067083;28;20225;-67
2023/04/08 04:20:58;;;;;;;17.07;13.50;;;;;;;;;;5090715;28;20256;-63
2023/04/08 04:23:25;;;;;;;18.13;14.27;;;;;;;;;;5069617;28;20251;-63
2023/04/08 04:25:52;;;;;;;17.40;13.10;;;;;;;;;;5073360;28;20633;-64
2023/04/08 04:28:20;;;;;;;13.47;10.60;;;;;;;;;;5069722;28;20225;-66
2023/04/08 04:30:47;;;;;;;12.90;10.80;;;;;;;;;;5067274;28;20286;-65
2023/04/08 04:33:14;;;;;;;11.03;9.00;;;;;;;;;;5083708;28;20643;-65
2023/04/08 04:35:42;;;;;;;13.20;10.17;;;;;;;;;;5084839;28;20201;-63
2023/04/08 04:38:11;;;;;;;12.17;9.53;;;;;;;;;;5090699;28;20228;-64
2023/04/08 04:40:39;;;;;;;13.23;10.57;;;;;;;;;;5069857;28;20647;-65
2023/04/08 04:43:06;;;;;;;14.87;11.07;;;;;;;;;;5056235;28;20228;-64
2023/04/08 04:45:34;;;;;;;13.17;11.50;;;;;;;;;;5061027;28;20232;-63
2023/04/08 04:48:02;;;;;;;14.27;11.90;;;;;;;;;;5061923;28;20224;-64
2023/04/08 04:50:29;;;;;;;13.07;10.70;;;;;;;;;;5061260;28;20222;-66
2023/04/08 04:52:57;;;;;;;15.50;12.50;;;;;;;;;;5058801;28;20215;-63
2023/04/08 04:55:24;;;;;;;12.93;10.20;;;;;;;;;;5075351;28;20296;-62
2023/04/08 04:57:51;;;;;;;12.70;10.90;;;;;;;;;;5059174;28;20305;-64
2023/04/08 05:00:19;;;;;;;13.23;11.57;;;;;;;;;;5059771;28;20282;-64
2023/04/08 05:02:46;;;;;;;13.73;11.43;;;;;;;;;;5075066;28;20221;-65
2023/04/08 05:05:13;;;;;;;12.17;10.17;;;;;;;;;;5077820;28;20200;-66
2023/04/08 05:07:41;;;;;;;12.63;11.00;;;;;;;;;;5057949;28;20219;-65
2023/04/08 05:10:09;;;;;;;14.10;11.60;;;;;;;;;;5062505;28;20662;-66
2023/04/08 05:12:37;;;;;;;12.40;10.13;;;;;;;;;;5059825;28;20240;-65
2023/04/08 05:15:05;;;;;;;11.83;10.17;;;;;;;;;;5061525;28;20794;-65
2023/04/08 05:17:32;;;;;;;11.10;9.90;;;;;;;;;;5057259;28;20216;-66
2023/04/08 05:20:00;;;;;;;10.40;9.30;;;;;;;;;;5063456;28;20209;-64
2023/04/08 05:22:27;;;;;;;12.10;10.70;;;;;;;;;;5060745;28;20654;-66
2023/04/08 05:24:54;;;;;;;11.20;9.87;;;;;;;;;;5062669;28;20277;-65
2023/04/08 05:27:22;;;;;;;11.30;9.77;;;;;;;;;;5077111;28;20267;-65
2023/04/08 05:29:49;;;;;;;11.03;9.73;;;;;;;;;;5074418;28;20263;-65
2023/04/08 05:32:16;;;;;;;11.67;9.90;;;;;;;;;;5070281;28;20300;-64
2023/04/08 05:34:44;;;;;;;11.73;9.97;;;;;;;;;;5072430;28;20624;-65
2023/04/08 05:37:11;;;;;;;12.63;10.67;;;;;;;;;;5074126;28;20296;-64
2023/04/08 05:39:39;;;;;;;12.83;10.77;;;;;;;;;;5061196;28;20256;-64
2023/04/08 05:42:06;;;;;;;14.67;11.77;;;;;;;;;;5062546;28;20807;-64
2023/04/08 05:44:34;;;;;;;13.17;11.33;;;;;;;;;;5060229;28;20214;-63
2023/04/08 05:47:01;;;;;;;14.63;11.13;;;;;;;;;;5067564;28;20209;-64
2023/04/08 05:49:28;;;;;;;21.33;15.07;;;;;;;;;;5080849;28;20702;-63
2023/04/08 05:51:55;;;;;;;14.97;12.97;;;;;;;;;;5057726;28;20236;-65
2023/04/08 05:54:23;;;;;;;14.83;12.43;;;;;;;;;;5057535;28;20682;-65
2023/04/08 05:56:50;;;;;;;14.17;12.40;;;;;;;;;;5067734;28;20237;-64
2023/04/08 05:59:17;;;;;;;15.27;11.80;;;;;;;;;;5061933;28;20261;-64
2023/04/08 06:01:45;;;;;;;13.60;11.70;;;;;;;;;;5060985;28;20212;-64
2023/04/08 06:04:12;;;;;;;18.00;13.13;;;;;;;;;;5055549;28;20274;-66
2023/04/08 06:06:40;;;;;;;15.30;12.30;;;;;;;;;;5074033;28;20251;-66
2023/04/08 06:09:08;;;;;;;16.13;13.43;;;;;;;;;;5055203;28;20358;-65
2023/04/08 06:11:36;;;;;;;16.03;12.93;;;;;;;;;;5063814;28;20208;-66
2023/04/08 06:14:06;;;;;;;15.63;12.70;;;;;;;;;;5084535;28;20254;-64
2023/04/08 06:16:34;;;;;;;16.07;12.87;;;;;;;;;;5084654;28;20212;-65
2023/04/08 06:19:02;;;;;;;35.43;23.40;;;;;;;;;;5072162;28;20271;-64
2023/04/08 06:21:29;;;;;;;16.90;12.67;;;;;;;;;;5067204;28;20295;-63
2023/04/08 06:23:57;;;;;;;12.77;10.37;;;;;;;;;;5062624;28;20235;-64
2023/04/08 06:26:25;;;;;;;15.30;11.83;;;;;;;;;;5061503;28;20255;-64
2023/04/08 06:28:52;;;;;;;14.17;11.23;;;;;;;;;;5069915;28;20307;-65
2023/04/08 06:31:20;;;;;;;12.47;10.67;;;;;;;;;;5059083;28;20213;-65
2023/04/08 06:33:48;;;;;;;14.00;10.67;;;;;;;;;;5067531;28;20243;-65
2023/04/08 06:36:16;;;;;;;13.13;10.70;;;;;;;;;;5064398;28;20204;-64
2023/04/08 06:38:43;;;;;;;12.37;10.30;;;;;;;;;;5070619;28;20290;-65
2023/04/08 06:41:10;;;;;;;14.03;11.20;;;;;;;;;;5067752;28;20675;-65
2023/04/08 06:43:38;;;;;;;12.03;9.93;;;;;;;;;;5069588;28;20205;-64
2023/04/08 06:46:05;;;;;;;13.50;10.63;;;;;;;;;;5081237;28;20487;-64
2023/04/08 06:48:33;;;;;;;9.70;7.10;;;;;;;;;;5078001;28;20260;-64
2023/04/08 06:51:00;;;;;;;10.90;7.93;;;;;;;;;;5069404;28;20687;-63
2023/04/08 06:53:29;;;;;;;10.50;8.83;;;;;;;;;;5069459;28;20209;-65
2023/04/08 06:55:57;;;;;;;12.00;9.63;;;;;;;;;;5065429;28;20569;-65
2023/04/08 06:58:24;;;;;;;11.87;9.30;;;;;;;;;;5082019;28;20705;-65
2023/04/08 07:00:54;;;;;;;10.00;8.47;;;;;;;;;;5069343;28;20212;-65
2023/04/08 07:03:22;;;;;;;11.03;8.70;;;;;;;;;;5069817;28;20713;-65
2023/04/08 07:05:49;;;;;;;9.70;7.93;;;;;;;;;;5069846;28;20319;-65
2023/04/08 07:08:17;;;;;;;8.87;7.97;;;;;;;;;;5068186;28;20263;-65
2023/04/08 07:10:44;;;;;;;9.17;7.63;;;;;;;;;;5068655;28;20644;-65
2023/04/08 07:13:12;;;;;;;8.33;7.10;;;;;;;;;;5071145;28;20201;-65
2023/04/08 07:15:39;;;;;;;8.73;7.57;;;;;;;;;;5075284;28;20577;-63
2023/04/08 07:18:06;;;;;;;8.47;7.00;;;;;;;;;;5090624;28;20722;-64
2023/04/08 07:20:37;;;;;;;11.10;7.77;;;;;;;;;;5075915;28;20235;-65
2023/04/08 07:23:04;;;;;;;10.03;8.40;;;;;;;;;;5075358;28;20209;-64
2023/04/08 07:25:36;;;;;;;8.53;7.63;;;;;;;;;;5076262;28;20197;-63
2023/04/08 07:28:04;;;;;;;7.80;6.63;;;;;;;;;;5080943;28;20224;-65
2023/04/08 07:30:31;;;;;;;8.13;7.17;;;;;;;;;;5078298;28;20248;-65
2023/04/08 07:32:58;;;;;;;8.20;7.13;;;;;;;;;;5092383;28;20197;-65
2023/04/08 07:35:27;;;;;;;7.67;6.83;;;;;;;;;;5075099;28;20282;-65
2023/04/08 07:37:56;;;;;;;7.33;6.50;;;;;;;;;;5093829;28;20224;-65
2023/04/08 07:40:23;;;;;;;7.10;6.40;;;;;;;;;;5071991;28;20247;-65
2023/04/08 07:42:51;;;;;;;7.97;7.17;;;;;;;;;;5077832;28;20209;-65
2023/04/08 07:45:20;;;;;;;8.00;7.00;;;;;;;;;;5074917;28;20600;-63
2023/04/08 07:47:47;;;;;;;8.60;7.50;;;;;;;;;;5071904;28;20205;-64
2023/04/08 07:50:14;;;;;;;9.70;8.07;;;;;;;;;;5088335;28;20324;-65
2023/04/08 07:52:41;;;;;;;9.10;8.17;;;;;;;;;;5091945;28;20197;-65
2023/04/08 07:55:09;;;;;;;10.67;8.80;;;;;;;;;;5056881;28;20201;-65
2023/04/08 07:57:36;;;;;;;10.27;7.90;;;;;;;;;;5091169;28;20246;-63
2023/04/08 08:00:04;;;;;;;9.63;8.13;;;;;;;;;;5071753;28;20212;-65
2023/04/08 08:02:33;;;;;;;10.50;8.73;;;;;;;;;;5072709;28;20205;-64
2023/04/08 08:05:02;;;;;;;11.10;9.90;;;;;;;;;;5072242;28;20205;-64
2023/04/08 08:07:29;;;;;;;13.80;11.90;;;;;;;;;;5074120;28;20239;-65
2023/04/08 08:09:57;;;;;;;14.17;12.40;;;;;;;;;;5073937;28;20272;-64
2023/04/08 08:12:24;;;;;;;16.17;12.93;;;;;;;;;;5070206;28;20262;-65
2023/04/08 08:14:53;;;;;;;15.90;12.67;;;;;;;;;;5085830;28;20212;-65
2023/04/08 08:17:21;;;;;;;16.30;12.00;;;;;;;;;;5075327;28;20262;-64
2023/04/08 08:19:48;;;;;;;15.63;11.93;;;;;;;;;;5071861;28;20703;-63
2023/04/08 08:22:15;;;;;;;13.13;11.37;;;;;;;;;;5073624;28;20314;-65
2023/04/08 08:24:43;;;;;;;12.50;10.23;;;;;;;;;;5075080;28;20208;-64
2023/04/08 08:27:10;;;;;;;14.83;12.40;;;;;;;;;;5074920;28;20354;-64
2023/04/08 08:29:38;;;;;;;15.63;12.70;;;;;;;;;;5071220;28;20872;-65
2023/04/08 08:32:05;;;;;;;16.40;13.33;;;;;;;;;;5055007;28;20209;-64
2023/04/08 08:34:32;;;;;;;12.77;11.13;;;;;;;;;;5083918;28;20648;-63
2023/04/08 08:36:59;;;;;;;9.80;8.80;;;;;;;;;;5074676;28;20233;-65
2023/04/08 08:39:27;;;;;;;11.50;10.30;;;;;;;;;;5090982;28;20229;-65
2023/04/08 08:41:55;;;;;;;11.60;10.40;;;;;;;;;;5072660;28;20248;-65
2023/04/08 08:44:23;;;;;;;12.13;10.87;;;;;;;;;;5070717;28;20201;-65
2023/04/08 08:46:50;;;;;;;12.77;10.20;;;;;;;;;;5073275;28;20197;-65
2023/04/08 08:49:18;;;;;;;10.53;8.83;;;;;;;;;;5072121;28;20233;-65
2023/04/08 08:51:46;;;;;;;11.23;9.87;;;;;;;;;;5082212;28;20197;-65
2023/04/08 08:54:15;;;;;;;12.23;9.43;;;;;;;;;;5089908;28;20227;-63
2023/04/08 08:56:42;;;;;;;10.33;9.23;;;;;;;;;;5073331;28;20196;-65
2023/04/08 08:59:10;;;;;;;11.63;9.13;;;;;;;;;;5071034;28;20286;-65
2023/04/08 09:01:40;;;;;;;11.63;9.97;;;;;;;;;;5071732;28;20217;-65
2023/04/08 09:04:14;;;;;;;11.30;8.87;;;;;;;;;;5064734;28;20204;-65
2023/04/08 09:06:42;;;;;;;9.53;8.53;;;;;;;;;;5068048;28;20607;-65
2023/04/08 09:09:11;;;;;;;10.13;8.60;;;;;;;;;;5073172;28;20224;-63
2023/04/08 09:11:39;;;;;;;14.90;11.23;;;;;;;;;;5067356;28;20250;-65
2023/04/08 09:14:18;;;;;;;13.70;11.53;;;;;;;;;;5072651;28;20808;-63
2023/04/08 09:16:46;;;;;;;11.07;9.97;;;;;;;;;;5076943;28;20679;-64
2023/04/08 09:19:14;;;;;;;11.43;10.33;;;;;;;;;;5069085;28;20239;-65
2023/04/08 09:21:42;;;;;;;10.47;9.33;;;;;;;;;;5071344;28;20235;-64
2023/04/08 09:24:10;;;;;;;12.33;11.03;;;;;;;;;;5073970;28;20201;-63
2023/04/08 09:26:37;;;;;;;8.97;8.10;;;;;;;;;;5071413;28;20211;-65
2023/04/08 09:29:05;;;;;;;9.13;8.30;;;;;;;;;;5072101;28;20225;-64
2023/04/08 09:31:57;;;;;;;10.43;9.37;;;;;;;;;;5074868;28;20655;-65
2023/04/08 09:34:26;;;;;;;9.73;8.83;;;;;;;;;;5089393;28;20240;-65
2023/04/08 09:36:54;;;;;;;10.23;9.20;;;;;;;;;;5072763;28;20205;-64
2023/04/08 09:39:22;;;;;;;10.87;9.77;;;;;;;;;;5083436;28;20220;-66
2023/04/08 09:41:51;;;;;;;11.30;10.10;;;;;;;;;;5072765;28;20613;-63
2023/04/08 09:44:20;;;;;;;13.23;11.00;;;;;;;;;;5071822;28;20635;-65
2023/04/08 09:46:51;;;;;;;13.57;11.87;;;;;;;;;;5072004;28;20200;-64
2023/04/08 09:49:26;;;;;;;13.33;11.93;;;;;;;;;;5072312;28;20758;-64
2023/04/08 09:51:59;;;;;;;18.67;13.50;;;;;;;;;;5071368;28;20445;-65
2023/04/08 09:54:53;;;;;;;16.07;13.43;;;;;;;;;;5071084;28;20220;-63
2023/04/08 09:57:27;;;;;;;15.97;13.53;;;;;;;;;;5043671;28;20586;-65
2023/04/08 10:00:02;;;;;;;14.87;12.97;;;;;;;;;;5069764;28;20216;-65
2023/04/08 10:02:33;;;;;;;16.63;13.43;;;;;;;;;;5070538;28;20642;-65
2023/04/08 10:05:02;;;;;;;14.40;12.53;;;;;;;;;;5071412;28;20216;-65
2023/04/08 10:07:35;;;;;;;16.70;12.77;;;;;;;;;;5090624;28;20233;-65
2023/04/08 10:10:02;;;;;;;15.20;13.43;;;;;;;;;;5069012;28;20233;-65
2023/04/08 10:12:30;;;;;;;17.93;14.87;;;;;;;;;;5072425;28;20243;-65
2023/04/08 10:15:16;;;;;;;15.47;13.43;;;;;;;;;;5072645;28;20240;-64
2023/04/08 10:17:43;;;;;;;16.67;13.70;;;;;;;;;;5059327;28;20223;-65
2023/04/08 10:20:30;;;;;;;15.47;13.80;;;;;;;;;;5072758;28;20301;-65
2023/04/08 10:22:58;;;;;;;15.10;12.83;;;;;;;;;;5066202;28;20236;-65
2023/04/08 10:25:25;;;;;;;14.30;12.50;;;;;;;;;;5060554;28;20237;-65
2023/04/08 10:27:52;;;;;;;15.13;13.03;;;;;;;;;;5052606;28;20205;-66
2023/04/08 10:30:32;;;;;;;14.40;12.40;;;;;;;;;;5071679;28;20229;-65
2023/04/08 10:33:09;;;;;;;14.13;12.50;;;;;;;;;;5071636;28;20204;-65
2023/04/08 10:35:37;;;;;;;14.77;12.50;;;;;;;;;;5072540;28;20301;-65
2023/04/08 10:38:04;;;;;;;15.00;12.70;;;;;;;;;;5062781;28;20253;-64
2023/04/08 10:40:37;;;;;;;13.27;11.97;;;;;;;;;;5071495;28;21175;-65
2023/04/08 10:43:05;;;;;;;14.53;12.80;;;;;;;;;;5066557;28;20236;-65
2023/04/08 10:45:32;;;;;;;15.80;13.37;;;;;;;;;;5077195;28;20808;-64
2023/04/08 10:48:21;;;;;;;13.80;12.40;;;;;;;;;;5050333;28;20354;-64
2023/04/08 10:50:53;;;;;;;14.07;12.63;;;;;;;;;;5054277;28;20700;-64
2023/04/08 10:53:27;;;;;;;13.97;12.13;;;;;;;;;;5051795;28;22201;-64
2023/04/08 10:56:03;;;;;;;15.27;13.77;;;;;;;;;;5062903;28;20480;-65
2023/04/08 10:58:31;;;;;;;13.23;11.93;;;;;;;;;;5051194;28;20282;-64
2023/04/08 11:01:08;;;;;;;13.90;12.07;;;;;;;;;;5047024;28;20625;-64
2023/04/08 11:03:36;;;;;;;13.03;11.67;;;;;;;;;;5044442;28;20460;-63
2023/04/08 11:06:04;;;;;;;14.37;12.23;;;;;;;;;;5055286;28;20219;-64
2023/04/08 11:08:32;;;;;;;14.67;12.13;;;;;;;;;;5057319;28;20247;-64
2023/04/08 11:11:00;;;;;;;14.07;11.93;;;;;;;;;;5042025;28;20225;-65
2023/04/08 11:13:28;;;;;;;13.67;11.93;;;;;;;;;;5048434;28;20196;-64
2023/04/08 11:15:56;;;;;;;13.67;11.73;;;;;;;;;;5038037;28;20208;-62
2023/04/08 11:18:26;;;;;;;14.03;11.23;;;;;;;;;;5046954;28;20719;-64
2023/04/08 11:20:54;;;;;;;13.53;11.33;;;;;;;;;;5060038;28;20213;-64
2023/04/08 11:23:26;;;;;;;15.10;12.83;;;;;;;;;;5058281;28;20212;-64
2023/04/08 11:25:54;;;;;;;14.17;12.00;;;;;;;;;;5047705;28;20266;-64
2023/04/08 11:28:23;;;;;;;13.37;11.83;;;;;;;;;;5064379;28;20232;-64
2023/04/08 11:30:53;;;;;;;14.20;12.17;;;;;;;;;;5062442;28;20616;-64
2023/04/08 11:33:34;;;;;;;17.87;12.57;;;;;;;;;;5061584;28;20223;-64
2023/04/08 11:36:08;;;;;;;13.47;12.07;;;;;;;;;;5064494;28;20209;-64
2023/04/08 11:38:39;;;;;;;14.83;13.07;;;;;;;;;;5050788;28;20220;-64
2023/04/08 11:41:07;;;;;;;14.27;12.77;;;;;;;;;;5064133;28;20208;-64
2023/04/08 11:43:39;;;;;;;14.37;12.87;;;;;;;;;;5064606;28;20478;-64
2023/04/08 11:46:11;;;;;;;14.13;12.17;;;;;;;;;;5053112;28;20213;-64
2023/04/08 11:48:39;;;;;;;15.23;13.63;;;;;;;;;;5052879;28;20229;-64
2023/04/08 11:51:11;;;;;;;14.43;12.93;;;;;;;;;;5046298;28;20240;-64
2023/04/08 11:53:38;;;;;;;15.90;12.93;;;;;;;;;;5050854;28;20201;-64
2023/04/08 11:56:20;;;;;;;13.83;12.43;;;;;;;;;;5042612;28;20216;-64
2023/04/08 11:58:48;;;;;;;16.77;14.00;;;;;;;;;;5044349;28;20224;-64
2023/04/08 12:01:15;;;;;;;15.93;13.80;;;;;;;;;;5052684;28;20217;-63
2023/04/08 12:03:55;;;;;;;15.77;13.57;;;;;;;;;;5045952;28;20208;-65
2023/04/08 12:06:25;;;;;;;15.63;13.97;;;;;;;;;;5042392;28;20270;-63
2023/04/08 12:08:53;;;;;;;18.67;13.43;;;;;;;;;;5046465;28;21639;-64
2023/04/08 12:11:21;;;;;;;15.53;13.93;;;;;;;;;;5068275;28;20759;-65
2023/04/08 12:13:49;;;;;;;14.93;13.33;;;;;;;;;;5065826;28;20245;-64
2023/04/08 12:16:17;;;;;;;16.87;14.60;;;;;;;;;;5045122;28;20499;-63
2023/04/08 12:18:45;;;;;;;18.57;14.30;;;;;;;;;;5056281;28;20236;-63
2023/04/08 12:21:13;;;;;;;15.27;13.67;;;;;;;;;;5049166;28;20213;-63
2023/04/08 12:23:40;;;;;;;16.03;14.37;;;;;;;;;;5059953;28;20217;-62
2023/04/08 12:26:08;;;;;;;15.70;13.90;;;;;;;;;;5068130;28;20209;-63
2023/04/08 12:28:36;;;;;;;17.23;14.40;;;;;;;;;;5063704;28;20224;-64
2023/04/08 12:31:03;;;;;;;15.30;13.50;;;;;;;;;;5076710;28;20330;-63
2023/04/08 12:33:31;;;;;;;16.83;14.23;;;;;;;;;;5064556;28;20206;-64
2023/04/08 12:35:58;;;;;;;16.97;14.63;;;;;;;;;;5084478;28;20641;-64
2023/04/08 12:38:26;;;;;;;18.70;14.80;;;;;;;;;;5066036;28;20286;-63
2023/04/08 12:40:54;;;;;;;18.30;14.70;;;;;;;;;;5063094;28;20250;-64
2023/04/08 12:43:22;;;;;;;16.37;13.63;;;;;;;;;;5056066;28;20218;-64
2023/04/08 12:45:50;;;;;;;32.80;19.63;;;;;;;;;;5072646;28;20201;-64
2023/04/08 12:48:18;;;;;;;15.73;13.70;;;;;;;;;;5063432;28;20252;-65
2023/04/08 12:50:45;;;;;;;14.93;13.40;;;;;;;;;;5059408;28;20308;-64
2023/04/08 12:53:12;;;;;;;15.10;13.50;;;;;;;;;;5055995;28;20306;-64
2023/04/08 12:55:40;;;;;;;17.40;13.47;;;;;;;;;;5056887;28;20574;-64
2023/04/08 12:58:10;;;;;;;15.50;13.33;;;;;;;;;;5059453;28;20341;-64
2023/04/08 13:00:38;;;;;;;15.87;13.10;;;;;;;;;;5053197;28;20212;-65
2023/04/08 13:03:06;;;;;;;15.23;13.63;;;;;;;;;;5063066;28;20365;-63
2023/04/08 13:05:34;;;;;;;15.40;12.70;;;;;;;;;;5052750;28;20262;-63
2023/04/08 13:08:13;;;;;;;15.07;12.03;;;;;;;;;;5063790;28;20758;-64
2023/04/08 13:10:42;;;;;;;13.40;12.00;;;;;;;;;;5069225;28;20690;-64
2023/04/08 13:13:10;;;;;;;16.13;13.27;;;;;;;;;;5058235;28;20510;-64
2023/04/08 13:15:38;;;;;;;13.67;12.27;;;;;;;;;;5055891;28;20205;-65
2023/04/08 13:18:05;;;;;;;14.30;12.80;;;;;;;;;;5071156;28;20224;-63
2023/04/08 13:20:34;;;;;;;14.83;12.93;;;;;;;;;;5068712;28;20616;-64
2023/04/08 13:23:01;;;;;;;16.17;13.03;;;;;;;;;;5056535;28;20209;-64
2023/04/08 13:25:29;;;;;;;15.50;13.23;;;;;;;;;;5060100;28;20256;-64
2023/04/08 13:27:56;;;;;;;14.10;12.60;;;;;;;;;;5061974;28;20264;-64
2023/04/08 13:30:24;;;;;;;14.90;13.00;;;;;;;;;;5056891;28;20225;-65
2023/04/08 13:32:51;;;;;;;14.57;13.03;;;;;;;;;;5064590;28;20449;-65
2023/04/08 13:35:19;;;;;;;14.63;13.13;;;;;;;;;;5061078;28;20205;-65
2023/04/08 13:37:47;;;;;;;32.13;22.97;;;;;;;;;;5076502;28;20310;-61
2023/04/08 13:40:14;;;;;;;16.83;13.83;;;;;;;;;;5072341;28;20244;-64
2023/04/08 13:42:41;;;;;;;16.43;14.03;;;;;;;;;;5077227;28;20616;-64
2023/04/08 13:45:09;;;;;;;14.70;12.97;;;;;;;;;;5059256;28;20209;-63
2023/04/08 13:47:37;;;;;;;14.40;12.97;;;;;;;;;;5049901;28;20483;-61
2023/04/08 13:50:06;;;;;;;14.80;13.30;;;;;;;;;;5078760;28;20217;-64
2023/04/08 13:52:33;;;;;;;15.03;13.43;;;;;;;;;;5057314;28;20220;-63
2023/04/08 13:55:00;;;;;;;15.13;12.93;;;;;;;;;;5057846;28;20263;-64
2023/04/08 13:57:28;;;;;;;15.37;13.77;;;;;;;;;;5057360;28;20204;-62
2023/04/08 13:59:56;;;;;;;14.73;13.17;;;;;;;;;;5073784;28;20221;-62
2023/04/08 14:02:23;;;;;;;14.67;13.03;;;;;;;;;;5050948;28;20252;-64
2023/04/08 14:04:51;;;;;;;16.73;13.73;;;;;;;;;;5048497;28;20243;-62
2023/04/08 14:07:19;;;;;;;16.87;14.87;;;;;;;;;;5060545;28;20576;-63
2023/04/08 14:09:46;;;;;;;15.77;14.10;;;;;;;;;;5037093;28;20268;-62
2023/04/08 14:12:14;;;;;;;14.87;13.30;;;;;;;;;;5045527;28;20426;-62
2023/04/08 14:14:41;;;;;;;16.53;14.73;;;;;;;;;;5043127;28;20246;-62
2023/04/08 14:17:09;;;;;;;15.63;13.93;;;;;;;;;;5033737;28;20215;-62
2023/04/08 14:19:37;;;;;;;16.77;13.93;;;;;;;;;;5043132;28;20228;-63
2023/04/08 14:22:04;;;;;;;17.33;15.17;;;;;;;;;;5058753;28;20217;-63
2023/04/08 14:24:31;;;;;;;19.80;16.10;;;;;;;;;;5055068;28;20201;-63
2023/04/08 14:26:59;;;;;;;16.10;13.83;;;;;;;;;;5072650;28;20213;-62
2023/04/08 14:29:26;;;;;;;17.97;14.90;;;;;;;;;;5058465;28;20237;-64